Startbyn, Sweden

3:41 PM CEST on July 30, 2015 (GMT +0200)
Kallax Air Base | | Change Station
CLOSE
Current Station
Airport
Location: Lulea-Kallax,
Elevation: 112 ft
Nearby Weather Stations

Elev 112 ft 65.54 °N, 22.12 °E | Updated 21 minutes ago

Mostly Cloudy
Mostly Cloudy
61 °F
Feels Like 61 °F
N
16
Wind Variable Wind from SSE

Today
High -- | Low -- °F
--% Chance of Precip.
Yesterday
High -- | Low -- °F
Precip. -- in
3:00 AM 10:06 PM
Waxing Gibbous, 99% visible
Pressure 29.44 in
Visibility 6.2 miles
Clouds Scattered Clouds 1400 ft
Mostly Cloudy 3800 ft
Dew Point 55 °F
Humidity 82%
Rainfall 0.00 in
Snow Depth Not available.
UV 2 out of 12
Pollen Not available.
Air Quality Not available.
Flu Activity Not available.
METAR ESPA 301320Z 15014KT 9999 SCT014 BKN038 16/13 Q0997

More Conditions Fewer Conditions

Pressure 29.44 in
Visibility 6.2 miles
Clouds Scattered Clouds 1400 ft
Mostly Cloudy 3800 ft
Dew Point 55 °F
Humidity 82%
Rainfall 0.00 in
Snow Depth Not available.
UV 2 out of 12
Pollen Not available.
Air Quality Not available.
Flu Activity Not available.
METAR ESPA 301320Z 15014KT 9999 SCT014 BKN038 16/13 Q0997

More Conditions Fewer Conditions

10-Day Weather Forecast

×

Almanac

Astronomy

Jul. 30, 2015 Rise Set
Actual Time
Civil Twilight
Nautical Twilight
Astronomical Twilight
Moon
Length of Visible Light
Length of Day
Tomorrow will be .
, % of the Moon is Illuminated

Today's Extremes

Country Highs Country Lows

Community

WunderPhotos

Upload Photos

1,842,360 photos uploaded!

WunderBlogs® & News

Nearby

Air Quality

  Air Quality AQ Index Pollutant
Not available.

Snow Depth

Station Depth Elevation

Earthquake Activity

City Distance Mag. Time & Date
Minimum magnitude displayed is 2.5.

Coastal Water Temperatures

Place Temperature

Stations

Nearby Weather Stations

Station Location Temp. Windchill Dew Point Humidity Wind Precip. Elev Updated Type